This is the latest recevied weather packets stored in our database for station/object EA1ZE. If no packets are shown the sender has not sent any weather packets the latest 10 day(s).
| Time | Temp. | Humidity | Pressure | Rain* | Wind** | Luminosity | Snow |
|---|---|---|---|---|---|---|---|
| 1777694426 | 12.78° C | 89% | 1015.4 hPa | 0 mm | - | - | - |
| 1777693524 | 12.78° C | 88% | 1015.7 hPa | 0 mm | - | - | - |
| 1777692623 | 12.78° C | 88% | 1015.4 hPa | 0 mm | - | - | - |
| 1777691720 | 12.78° C | 88% | 1015.5 hPa | 0 mm | - | - | - |
| 1777690819 | 12.78° C | 88% | 1015.6 hPa | 0 mm | - | - | - |
| 1777689925 | 12.78° C | 87% | 1015.5 hPa | 0 mm | - | - | - |
| 1777689018 | 13.33° C | 87% | 1015.7 hPa | 0 mm | - | - | - |
| 1777688115 | 13.33° C | 86% | 1015.6 hPa | 0 mm | - | - | - |
| 1777687213 | 13.33° C | 86% | 1015.7 hPa | 0 mm | - | - | - |
| 1777686310 | 13.33° C | 85% | 1015.9 hPa | 0 mm | - | - | - |
| 1777685410 | 13.89° C | 84% | 1016 hPa | 0 mm | - | - | - |
| 1777684506 | 13.89° C | 84% | 1016.2 hPa | 0 mm | - | - | - |
| 1777683611 | 13.89° C | 83% | 1016.2 hPa | 0 mm | - | - | - |
| 1777682709 | 13.89° C | 83% | 1016.2 hPa | 0 mm | - | - | - |
| 1777681802 | 13.89° C | 84% | 1016.3 hPa | 0 mm | - | - | - |
| 1777680966 | 13.89° C | 83% | 1016.4 hPa | 0 mm | - | - | - |
| 1777680068 | 13.89° C | 83% | 1016.5 hPa | 0 mm | - | - | - |
| 1777679161 | 13.89° C | 83% | 1016.7 hPa | 0 mm | - | - | - |
| 1777678258 | 14.44° C | 83% | 1017 hPa | 0.51 mm | - | - | - |
| 1777677357 | 13.89° C | 83% | 1017 hPa | 1.27 mm | - | - | - |
| 1777676462 | 14.44° C | 83% | 1017.1 hPa | 1.27 mm | - | - | - |
| 1777675553 | 14.44° C | 81% | 1017 hPa | 1.27 mm | - | - | - |
| 1777674650 | 15° C | 77% | 1018.3 hPa | 0.51 mm | - | - | - |
| 1777673753 | 16.67° C | 68% | 1017.6 hPa | 0 mm | - | - | - |
| 1777672842 | 16.11° C | 67% | 1017.1 hPa | 0 mm | - | - | - |
* Rain latest hour (hover to see other rain measurements)
** Current wind speed in m/s (hover to see current wind gust speed)